Time;durP1;ratioP1;P1;durP2;ratioP2;P2;SDS_P1;SDS_P2;PMS_P1;PMS_P2;Temp;Humidity;BMP_temperature;BMP_pressure;BME280_temperature;BME280_humidity;BME280_pressure;Samples;Min_cycle;Max_cycle;Signal;HPM_P1;HPM_P2
2021/06/21 00:00:55;;;;;;;17.67;16.17;;;25.70;1.00;;;;;;5062069;28;20457;-78
2021/06/21 00:03:23;;;;;;;17.13;15.60;;;25.60;1.00;;;;;;5060453;28;20459;-77
2021/06/21 00:05:49;;;;;;;17.80;16.30;;;25.60;1.00;;;;;;5038705;28;20470;-78
2021/06/21 00:08:17;;;;;;;18.23;16.83;;;25.60;1.00;;;;;;5061496;28;20446;-78
2021/06/21 00:10:44;;;;;;;17.70;16.10;;;25.60;1.00;;;;;;5059456;28;20509;-77
2021/06/21 00:13:11;;;;;;;18.13;16.53;;;25.50;1.00;;;;;;5062832;28;20455;-77
2021/06/21 00:15:38;;;;;;;19.07;17.10;;;25.50;1.00;;;;;;5063057;28;20453;-80
2021/06/21 00:18:05;;;;;;;18.40;17.00;;;25.40;1.00;;;;;;5067229;28;20462;-77
2021/06/21 00:20:33;;;;;;;18.47;16.63;;;25.30;1.00;;;;;;5066076;28;23308;-77
2021/06/21 00:23:00;;;;;;;17.53;16.23;;;25.30;1.00;;;;;;5065253;28;21198;-78
2021/06/21 00:25:26;;;;;;;17.83;16.13;;;25.30;1.00;;;;;;5069757;28;20528;-77
2021/06/21 00:27:53;;;;;;;16.70;15.40;;;25.20;1.00;;;;;;5068587;28;20737;-79
2021/06/21 00:30:21;;;;;;;17.63;15.80;;;25.20;1.00;;;;;;5077142;28;20438;-77
2021/06/21 00:32:48;;;;;;;16.03;14.83;;;25.10;1.00;;;;;;5073330;28;21071;-77
2021/06/21 00:35:16;;;;;;;16.60;15.30;;;25.00;1.00;;;;;;5078266;28;20492;-78
2021/06/21 00:37:45;;;;;;;17.50;16.00;;;25.00;1.00;;;;;;5083336;28;20576;-78
2021/06/21 00:40:13;;;;;;;17.03;15.57;;;24.90;1.00;;;;;;5092688;28;21546;-78
2021/06/21 00:42:42;;;;;;;18.30;16.80;;;24.80;1.00;;;;;;5069417;28;20527;-77
2021/06/21 00:45:10;;;;;;;18.17;16.47;;;24.70;1.00;;;;;;5067942;28;20498;-77
2021/06/21 00:47:37;;;;;;;16.80;15.50;;;24.60;1.00;;;;;;5071497;28;20452;-76
2021/06/21 00:50:16;;;;;;;17.60;15.90;;;24.60;1.00;;;;;;5074978;28;20485;-79
2021/06/21 00:52:45;;;;;;;18.57;16.83;;;24.50;1.00;;;;;;5076588;28;20465;-78
2021/06/21 00:55:14;;;;;;;18.83;17.00;;;24.50;1.00;;;;;;5086765;28;20545;-78
2021/06/21 00:57:41;;;;;;;17.20;15.80;;;24.50;1.00;;;;;;5067434;28;20459;-76
2021/06/21 01:00:10;;;;;;;17.07;15.73;;;24.60;1.00;;;;;;5066308;28;20897;-80
2021/06/21 01:02:38;;;;;;;17.33;15.70;;;24.60;1.00;;;;;;5060355;28;20982;-77
2021/06/21 01:05:08;;;;;;;18.70;17.00;;;24.60;1.00;;;;;;5064606;28;21072;-77
2021/06/21 01:07:37;;;;;;;18.40;16.80;;;24.60;1.00;;;;;;5059740;28;20443;-78
2021/06/21 01:10:07;;;;;;;17.57;16.27;;;24.50;1.00;;;;;;5057786;28;20457;-77
2021/06/21 01:12:50;;;;;;;17.63;16.13;;;24.50;1.00;;;;;;5059040;28;23515;-79
2021/06/21 01:15:19;;;;;;;17.37;16.00;;;24.50;1.00;;;;;;5060696;28;20455;-78
2021/06/21 01:17:54;;;;;;;17.80;16.30;;;24.50;1.00;;;;;;5060208;28;20601;-78
2021/06/21 01:20:50;;;;;;;17.73;16.17;;;24.50;1.00;;;;;;5067273;28;21133;-77
2021/06/21 01:23:49;;;;;;;17.10;15.60;;;24.50;1.00;;;;;;5062135;28;20435;-78
2021/06/21 01:26:20;;;;;;;16.97;15.37;;;24.40;1.00;;;;;;5061262;28;20461;-78
2021/06/21 01:29:03;;;;;;;17.57;16.00;;;24.30;1.00;;;;;;5064024;28;21639;-78
2021/06/21 01:31:46;;;;;;;16.80;15.30;;;24.30;1.00;;;;;;5060746;28;20965;-78
2021/06/21 01:34:16;;;;;;;16.10;14.80;;;24.30;1.00;;;;;;5065644;28;20466;-78
2021/06/21 01:36:45;;;;;;;17.57;16.17;;;24.30;1.00;;;;;;5066253;28;21233;-77
2021/06/21 01:39:12;;;;;;;17.17;15.60;;;24.20;1.00;;;;;;5064932;28;20478;-77
2021/06/21 01:41:44;;;;;;;17.33;15.87;;;24.20;1.00;;;;;;5061643;28;21003;-77
2021/06/21 01:44:12;;;;;;;16.30;15.10;;;24.20;1.00;;;;;;5063910;28;20416;-78
2021/06/21 01:46:41;;;;;;;16.20;14.83;;;24.20;1.00;;;;;;5060386;28;21346;-78
2021/06/21 01:49:12;;;;;;;17.43;15.47;;;24.20;1.00;;;;;;5063293;28;20466;-78
2021/06/21 01:51:42;;;;;;;16.97;15.40;;;24.20;1.00;;;;;;5061202;28;20459;-78
2021/06/21 01:54:09;;;;;;;15.80;14.50;;;24.20;1.00;;;;;;5061299;28;20550;-77
2021/06/21 01:56:40;;;;;;;16.30;14.80;;;24.10;1.00;;;;;;5064887;28;20467;-77
2021/06/21 01:59:09;;;;;;;16.87;15.23;;;24.10;1.00;;;;;;5066084;28;20864;-78
2021/06/21 02:01:37;;;;;;;16.43;15.03;;;24.00;1.00;;;;;;5069060;28;21005;-78
2021/06/21 02:04:07;;;;;;;16.77;14.70;;;24.00;1.00;;;;;;5063116;28;20438;-79
2021/06/21 02:06:35;;;;;;;17.37;15.70;;;24.00;1.00;;;;;;5071608;28;20559;-78
2021/06/21 02:09:07;;;;;;;17.03;15.63;;;24.00;1.00;;;;;;5069133;28;20591;-78
2021/06/21 02:11:34;;;;;;;16.93;15.53;;;24.00;1.00;;;;;;5070127;28;21176;-78
2021/06/21 02:14:04;;;;;;;16.07;14.77;;;24.00;1.00;;;;;;5073236;28;20460;-76
2021/06/21 02:16:31;;;;;;;17.50;16.10;;;24.00;1.00;;;;;;5073708;28;21376;-78
2021/06/21 02:18:58;;;;;;;16.77;15.10;;;24.00;1.00;;;;;;5076893;28;20467;-77
2021/06/21 02:21:26;;;;;;;18.63;17.03;;;23.90;1.00;;;;;;5084256;28;20438;-78
2021/06/21 02:23:54;;;;;;;17.03;15.63;;;23.90;1.00;;;;;;5086628;28;21507;-77
2021/06/21 02:26:24;;;;;;;19.10;17.60;;;24.00;1.00;;;;;;5071799;28;20462;-77
2021/06/21 02:28:53;;;;;;;19.00;17.03;;;23.90;1.00;;;;;;5066434;28;20905;-77
2021/06/21 02:31:21;;;;;;;20.37;18.47;;;23.90;1.00;;;;;;5073227;28;20441;-79
2021/06/21 02:33:48;;;;;;;20.90;19.20;;;23.80;1.00;;;;;;5072704;28;20652;-79
2021/06/21 02:36:15;;;;;;;20.53;18.50;;;23.60;1.00;;;;;;5073774;28;20469;-79
2021/06/21 02:38:41;;;;;;;20.07;18.13;;;23.40;1.00;;;;;;5080146;28;20433;-79
2021/06/21 02:41:08;;;;;;;19.80;18.10;;;23.30;1.00;;;;;;5083249;28;20430;-78
2021/06/21 02:43:36;;;;;;;21.20;19.50;;;23.20;1.00;;;;;;5066350;28;20469;-78
2021/06/21 02:46:03;;;;;;;20.70;19.00;;;23.10;1.00;;;;;;5064469;28;21195;-79
2021/06/21 02:48:30;;;;;;;21.47;19.63;;;23.10;1.00;;;;;;5062929;28;20514;-78
2021/06/21 02:50:56;;;;;;;23.57;21.50;;;23.10;1.00;;;;;;5058913;28;20553;-77
2021/06/21 02:53:35;;;;;;;22.30;20.30;;;23.00;1.00;;;;;;5061413;28;21769;-79
2021/06/21 02:56:10;;;;;;;22.57;20.47;;;22.90;1.00;;;;;;5064319;28;21043;-79
2021/06/21 02:58:41;;;;;;;25.23;22.83;;;22.70;1.00;;;;;;5063229;28;20841;-79
2021/06/21 03:01:10;;;;;;;26.93;24.57;;;22.50;1.00;;;;;;5060574;28;20998;-79
2021/06/21 03:03:40;;;;;;;25.40;23.27;;;22.40;1.00;;;;;;5059167;28;20842;-78
2021/06/21 03:06:08;;;;;;;25.73;23.63;;;22.40;1.00;;;;;;5060213;28;20457;-79
2021/06/21 03:08:37;;;;;;;25.80;23.50;;;22.40;1.00;;;;;;5070331;28;20471;-78
2021/06/21 03:11:05;;;;;;;24.67;22.67;;;22.50;1.00;;;;;;5059837;28;20451;-78
2021/06/21 03:13:32;;;;;;;24.60;22.70;;;22.50;1.00;;;;;;5059327;28;21630;-79
2021/06/21 03:16:01;;;;;;;25.10;23.10;;;22.70;1.00;;;;;;5057715;28;22155;-79
2021/06/21 03:18:28;;;;;;;24.47;22.13;;;22.80;1.00;;;;;;5059004;28;20483;-78
2021/06/21 03:20:56;;;;;;;24.60;22.67;;;22.90;1.00;;;;;;5060145;28;20463;-79
2021/06/21 03:23:24;;;;;;;24.00;21.97;;;23.00;1.00;;;;;;5064527;28;20437;-78
2021/06/21 03:25:54;;;;;;;23.90;22.00;;;23.10;1.00;;;;;;5075205;28;20441;-79
2021/06/21 03:28:22;;;;;;;24.03;22.03;;;23.20;1.00;;;;;;5075096;28;20512;-78
2021/06/21 03:30:52;;;;;;;24.30;22.17;;;23.30;1.00;;;;;;5079342;28;20406;-79
2021/06/21 03:33:21;;;;;;;24.67;22.63;;;23.40;1.00;;;;;;5078314;28;21643;-79
2021/06/21 03:35:49;;;;;;;23.27;21.40;;;23.50;1.00;;;;;;5077251;28;20474;-78
2021/06/21 03:38:19;;;;;;;22.20;20.50;;;23.60;1.00;;;;;;5078059;28;20420;-79
2021/06/21 03:40:46;;;;;;;21.77;19.80;;;23.60;1.00;;;;;;5077232;28;20467;-78
2021/06/21 03:43:13;;;;;;;18.57;17.20;;;23.70;1.00;;;;;;5071901;28;20454;-79
2021/06/21 03:45:41;;;;;;;20.67;18.70;;;23.70;1.00;;;;;;5069710;28;20455;-79
2021/06/21 03:48:09;;;;;;;20.47;18.37;;;23.80;1.00;;;;;;5075618;28;20473;-78
2021/06/21 03:50:37;;;;;;;20.07;18.20;;;23.80;1.00;;;;;;5083977;28;20395;-79
2021/06/21 03:53:04;;;;;;;19.20;17.40;;;23.70;1.00;;;;;;5075596;28;20411;-79
2021/06/21 03:55:34;;;;;;;16.20;14.73;;;23.80;1.00;;;;;;5061127;28;20569;-79
2021/06/21 03:58:01;;;;;;;16.40;15.10;;;23.80;1.00;;;;;;5063890;28;20460;-78
2021/06/21 04:00:29;;;;;;;13.40;12.17;;;23.80;1.00;;;;;;5065913;28;20547;-79
2021/06/21 04:02:57;;;;;;;15.43;13.77;;;23.80;1.00;;;;;;5066503;28;20431;-79
2021/06/21 04:05:24;;;;;;;13.63;12.40;;;23.80;1.00;;;;;;5065111;28;20440;-79
2021/06/21 04:07:53;;;;;;;15.03;13.50;;;23.80;1.00;;;;;;5066101;28;20462;-81
2021/06/21 04:10:23;;;;;;;16.07;14.43;;;23.90;1.00;;;;;;5079260;28;20461;-79
2021/06/21 04:12:51;;;;;;;16.80;15.53;;;23.90;1.00;;;;;;5067120;28;20471;-78
2021/06/21 04:15:20;;;;;;;22.00;19.63;;;24.00;1.00;;;;;;5065052;28;20457;-79
2021/06/21 04:17:47;;;;;;;22.60;20.77;;;24.00;1.00;;;;;;5060843;28;20461;-79
2021/06/21 04:20:16;;;;;;;21.13;19.33;;;24.00;1.00;;;;;;5066550;28;20445;-79
2021/06/21 04:22:43;;;;;;;25.50;23.30;;;24.00;1.00;;;;;;5061549;28;21790;-79
2021/06/21 04:25:14;;;;;;;19.77;17.97;;;24.00;1.00;;;;;;5066887;28;20407;-77
2021/06/21 04:27:41;;;;;;;20.53;18.73;;;24.00;1.00;;;;;;5067181;28;20458;-77
2021/06/21 04:30:10;;;;;;;19.93;18.00;;;24.10;1.00;;;;;;5068199;28;20474;-77
2021/06/21 04:32:37;;;;;;;18.03;16.67;;;24.00;1.00;;;;;;5068450;28;21064;-76
2021/06/21 04:35:07;;;;;;;17.97;16.47;;;24.00;1.00;;;;;;5069392;28;20450;-77
2021/06/21 04:37:33;;;;;;;17.77;16.10;;;24.00;1.00;;;;;;5056025;28;20462;-78
2021/06/21 04:40:00;;;;;;;17.80;16.10;;;24.00;1.00;;;;;;5071662;28;20435;-77
2021/06/21 04:42:29;;;;;;;19.23;17.33;;;24.00;1.00;;;;;;5078670;28;20464;-72
2021/06/21 04:44:55;;;;;;;17.10;15.60;;;24.00;1.00;;;;;;5054110;28;20521;-73
2021/06/21 04:47:23;;;;;;;17.03;15.40;;;24.00;1.00;;;;;;5054294;28;20446;-72
2021/06/21 04:49:50;;;;;;;16.33;14.73;;;24.10;1.00;;;;;;5056857;28;21044;-72
2021/06/21 04:52:18;;;;;;;17.80;16.07;;;24.10;1.00;;;;;;5052663;28;20482;-72
2021/06/21 04:54:47;;;;;;;16.47;14.87;;;24.00;1.00;;;;;;5057231;28;20439;-71
2021/06/21 04:57:14;;;;;;;16.13;14.63;;;24.00;1.00;;;;;;5054181;28;20983;-72
2021/06/21 04:59:42;;;;;;;16.37;14.87;;;24.00;1.00;;;;;;5061828;28;20518;-72
2021/06/21 05:02:09;;;;;;;15.93;14.57;;;24.00;1.00;;;;;;5056649;28;20473;-73
2021/06/21 05:04:35;;;;;;;16.67;15.27;;;24.00;1.00;;;;;;5059638;28;20470;-68
2021/06/21 05:07:04;;;;;;;16.37;14.67;;;24.00;1.00;;;;;;5057053;28;20668;-69
2021/06/21 05:09:30;;;;;;;14.93;13.73;;;24.00;1.00;;;;;;5055029;28;20451;-69
2021/06/21 05:11:57;;;;;;;15.90;14.50;;;24.00;1.00;;;;;;5061070;28;20460;-69
2021/06/21 05:14:23;;;;;;;16.27;14.87;;;24.00;1.00;;;;;;5055815;28;20446;-69
2021/06/21 05:16:51;;;;;;;16.90;15.50;;;23.90;1.00;;;;;;5060762;28;20478;-69
2021/06/21 05:19:18;;;;;;;16.60;15.03;;;23.90;1.00;;;;;;5060657;28;20437;-68
2021/06/21 05:21:45;;;;;;;17.50;15.80;;;24.00;1.00;;;;;;5059936;28;20466;-70
2021/06/21 05:24:11;;;;;;;16.97;15.53;;;24.00;1.00;;;;;;5058039;28;20499;-68
2021/06/21 05:26:38;;;;;;;16.53;15.13;;;24.00;1.00;;;;;;5061762;28;20454;-70
2021/06/21 05:29:05;;;;;;;21.40;19.50;;;24.00;1.00;;;;;;5062895;28;20454;-71
2021/06/21 05:31:31;;;;;;;18.13;16.43;;;24.10;1.00;;;;;;5059190;28;20476;-76
2021/06/21 05:33:59;;;;;;;19.70;18.20;;;24.00;1.00;;;;;;5063612;28;20466;-78
2021/06/21 05:36:26;;;;;;;19.27;17.83;;;24.00;1.00;;;;;;5063493;28;21385;-77
2021/06/21 05:38:52;;;;;;;19.70;17.83;;;24.00;1.00;;;;;;5064227;28;20581;-78
2021/06/21 05:41:19;;;;;;;19.90;17.90;;;24.10;1.00;;;;;;5069052;28;20479;-79
2021/06/21 05:43:47;;;;;;;20.37;18.30;;;24.30;1.00;;;;;;5074127;28;21118;-83
2021/06/21 05:46:13;;;;;;;22.50;20.53;;;24.30;1.00;;;;;;5072373;28;20485;-84
2021/06/21 05:48:40;;;;;;;21.17;19.07;;;24.50;1.00;;;;;;5073456;28;20941;-81
2021/06/21 05:51:08;;;;;;;19.33;17.87;;;24.70;1.00;;;;;;5071779;28;20450;-83
2021/06/21 05:53:35;;;;;;;21.27;19.17;;;24.50;1.00;;;;;;5069016;28;21183;-81
2021/06/21 05:56:01;;;;;;;20.20;18.60;;;24.40;1.00;;;;;;5074119;28;21427;-82
2021/06/21 05:58:28;;;;;;;21.20;19.33;;;24.30;1.00;;;;;;5082366;28;20436;-82
2021/06/21 06:00:55;;;;;;;21.47;19.53;;;24.30;1.00;;;;;;5082295;28;20481;-83
2021/06/21 06:03:21;;;;;;;20.83;19.03;;;24.30;1.00;;;;;;5083693;28;20454;-83
2021/06/21 06:05:48;;;;;;;22.70;20.50;;;24.40;1.00;;;;;;5074954;28;20571;-82
2021/06/21 06:08:17;;;;;;;21.23;19.20;;;24.50;1.00;;;;;;5082090;28;20469;-82
2021/06/21 06:10:44;;;;;;;20.83;19.10;;;24.50;1.00;;;;;;5071980;28;20503;-81
2021/06/21 06:13:10;;;;;;;20.60;18.70;;;24.70;1.00;;;;;;5078453;28;20449;-81
2021/06/21 06:15:38;;;;;;;21.40;19.80;;;24.90;1.00;;;;;;5064966;28;22625;-80
2021/06/21 06:18:05;;;;;;;21.70;19.90;;;25.00;1.00;;;;;;5076017;28;20429;-82
2021/06/21 06:20:32;;;;;;;22.00;20.10;;;25.10;1.00;;;;;;5079599;28;20461;-81
2021/06/21 06:22:59;;;;;;;20.90;19.40;;;25.10;1.00;;;;;;5086927;28;20520;-83
2021/06/21 06:25:27;;;;;;;21.13;19.43;;;25.20;1.00;;;;;;5080866;28;21584;-83
2021/06/21 06:27:54;;;;;;;23.23;21.10;;;25.20;1.00;;;;;;5081695;28;20460;-83
2021/06/21 06:30:23;;;;;;;21.80;20.00;;;25.30;1.00;;;;;;5082112;28;20479;-82
2021/06/21 06:32:50;;;;;;;22.20;20.40;;;25.30;1.00;;;;;;5077544;28;20453;-81
2021/06/21 06:35:17;;;;;;;21.30;19.43;;;25.30;1.00;;;;;;5080081;28;20458;-81
2021/06/21 06:37:44;;;;;;;22.77;20.80;;;25.50;1.00;;;;;;5088222;28;20497;-81
2021/06/21 06:40:12;;;;;;;21.80;19.73;;;25.80;1.00;;;;;;5079228;28;21670;-82
2021/06/21 06:42:40;;;;;;;22.23;20.20;;;25.80;1.00;;;;;;5062779;28;20458;-84
2021/06/21 06:45:08;;;;;;;23.17;21.17;;;26.00;1.00;;;;;;5096799;28;20510;-81
2021/06/21 06:47:35;;;;;;;21.07;19.43;;;26.10;1.00;;;;;;5066345;28;20438;-81
2021/06/21 06:50:02;;;;;;;23.03;20.73;;;26.10;1.00;;;;;;5072810;28;20602;-81
2021/06/21 06:52:29;;;;;;;22.17;20.37;;;26.00;1.00;;;;;;5074472;28;20477;-82
2021/06/21 06:57:43;;;;;;;23.70;21.57;;;25.90;1.00;;;;;;5071591;28;20441;-82
2021/06/21 07:00:12;;;;;;;22.37;20.67;;;25.80;1.00;;;;;;5083147;28;21868;-83
2021/06/21 07:02:42;;;;;;;23.63;21.67;;;25.90;1.00;;;;;;5074743;28;20450;-82
2021/06/21 07:05:10;;;;;;;23.40;21.50;;;25.80;1.00;;;;;;5072566;28;20455;-82
2021/06/21 07:07:37;;;;;;;21.03;19.23;;;25.70;1.00;;;;;;5079168;28;20435;-82
2021/06/21 07:10:04;;;;;;;23.73;21.73;;;25.80;1.00;;;;;;5073829;28;20575;-82
2021/06/21 07:12:31;;;;;;;24.10;22.00;;;25.80;1.00;;;;;;5075480;28;20456;-82
2021/06/21 07:14:59;;;;;;;21.20;19.50;;;25.90;1.00;;;;;;5062849;28;20581;-83
2021/06/21 07:17:26;;;;;;;21.50;19.53;;;26.00;1.00;;;;;;5079857;28;21324;-83
2021/06/21 07:19:52;;;;;;;22.40;20.60;;;26.00;1.00;;;;;;5080320;28;20979;-83
2021/06/21 07:22:19;;;;;;;24.67;20.43;;;26.00;1.00;;;;;;5078267;28;20997;-84
2021/06/21 07:24:46;;;;;;;22.20;20.40;;;26.10;1.00;;;;;;5067332;28;20465;-83
2021/06/21 07:27:13;;;;;;;23.30;21.20;;;26.10;1.00;;;;;;5084546;28;20488;-83
2021/06/21 07:29:39;;;;;;;22.67;20.63;;;26.10;1.00;;;;;;5066606;28;22742;-82
2021/06/21 07:32:08;;;;;;;22.30;20.43;;;26.40;1.00;;;;;;5087179;28;20483;-83
2021/06/21 07:34:38;;;;;;;21.87;20.10;;;26.60;1.00;;;;;;5078046;28;20435;-82
2021/06/21 07:37:05;;;;;;;21.67;19.77;;;26.80;1.00;;;;;;5068191;28;20426;-82
2021/06/21 07:39:31;;;;;;;22.67;20.50;;;26.90;1.00;;;;;;5084754;28;20470;-84
2021/06/21 07:41:58;;;;;;;20.50;18.80;;;27.00;1.00;;;;;;5064310;28;20428;-84
2021/06/21 07:44:25;;;;;;;22.83;20.60;;;27.00;1.00;;;;;;5087323;28;21125;-83
2021/06/21 07:46:51;;;;;;;21.63;19.73;;;27.00;1.00;;;;;;5076558;28;20979;-82
2021/06/21 07:49:19;;;;;;;20.80;19.00;;;27.00;1.00;;;;;;5077510;28;20772;-83
2021/06/21 07:51:47;;;;;;;22.53;20.27;;;27.00;1.00;;;;;;5074289;28;20427;-84
2021/06/21 07:54:14;;;;;;;23.60;20.20;;;27.10;1.00;;;;;;5073164;28;20450;-82
2021/06/21 07:56:41;;;;;;;22.00;19.60;;;27.20;1.00;;;;;;5076729;28;20456;-82
2021/06/21 07:59:08;;;;;;;20.77;18.90;;;27.30;1.00;;;;;;5076925;28;20512;-84
2021/06/21 08:01:35;;;;;;;20.83;19.10;;;27.40;1.00;;;;;;5075550;28;20413;-83
2021/06/21 08:04:02;;;;;;;18.57;17.03;;;27.50;1.00;;;;;;5076059;28;20224;-83
2021/06/21 08:06:30;;;;;;;17.77;16.27;;;27.70;1.00;;;;;;5076842;28;21567;-84
2021/06/21 08:08:56;;;;;;;16.13;14.77;;;27.80;1.00;;;;;;5059283;28;21342;-83
2021/06/21 08:11:23;;;;;;;17.17;15.77;;;27.90;1.00;;;;;;5078575;28;20406;-83
2021/06/21 08:13:50;;;;;;;18.50;16.90;;;27.90;1.00;;;;;;5074006;28;20958;-82
2021/06/21 08:16:16;;;;;;;17.33;16.00;;;28.00;1.00;;;;;;5075682;28;20452;-81
2021/06/21 08:18:43;;;;;;;17.70;16.23;;;28.10;1.00;;;;;;5077856;28;20463;-82
2021/06/21 08:21:10;;;;;;;17.27;15.63;;;28.00;1.00;;;;;;5072891;28;20438;-82
2021/06/21 08:23:38;;;;;;;14.07;12.87;;;27.90;1.00;;;;;;5065606;28;20452;-80
2021/06/21 08:26:05;;;;;;;15.43;13.53;;;27.80;1.00;;;;;;5083763;28;20502;-82
2021/06/21 08:28:31;;;;;;;12.60;11.50;;;27.90;1.00;;;;;;5071558;28;20447;-84
2021/06/21 08:30:59;;;;;;;12.03;11.00;;;28.00;1.00;;;;;;5081980;28;20419;-83
2021/06/21 08:33:25;;;;;;;10.87;9.87;;;28.20;1.00;;;;;;5083514;28;20434;-83
2021/06/21 08:35:52;;;;;;;11.47;10.57;;;28.40;1.00;;;;;;5092724;28;20454;-84
2021/06/21 08:38:19;;;;;;;10.57;9.70;;;28.60;1.00;;;;;;5090159;28;20417;-82
2021/06/21 08:40:47;;;;;;;10.20;9.30;;;28.60;1.00;;;;;;5096781;28;20408;-81
2021/06/21 08:43:14;;;;;;;10.40;8.97;;;28.70;1.00;;;;;;5071902;28;20456;-82
2021/06/21 08:45:41;;;;;;;9.20;8.40;;;28.80;1.00;;;;;;5079622;28;20407;-81
2021/06/21 08:48:09;;;;;;;9.73;8.87;;;28.80;1.00;;;;;;5081536;28;20450;-83
2021/06/21 08:50:36;;;;;;;8.37;7.67;;;28.70;1.00;;;;;;5078559;28;20415;-83
2021/06/21 08:53:03;;;;;;;11.83;8.00;;;28.70;1.00;;;;;;5080349;28;20526;-82
2021/06/21 08:55:30;;;;;;;8.37;7.57;;;29.00;1.00;;;;;;5085748;28;20461;-83
2021/06/21 08:57:58;;;;;;;10.50;7.80;;;29.20;1.00;;;;;;5087488;28;21041;-83
2021/06/21 09:00:25;;;;;;;10.17;7.13;;;29.40;1.00;;;;;;5093710;28;21158;-82
2021/06/21 09:02:52;;;;;;;6.80;6.20;;;29.20;1.00;;;;;;5093327;28;20854;-82
2021/06/21 09:05:19;;;;;;;7.77;6.80;;;29.10;1.00;;;;;;5074654;28;20431;-82
2021/06/21 09:07:47;;;;;;;7.77;6.97;;;29.10;1.00;;;;;;5092087;28;20465;-82
2021/06/21 09:10:25;;;;;;;6.87;6.27;;;29.40;1.00;;;;;;5087680;28;20417;-83
2021/06/21 09:13:05;;;;;;;6.97;6.37;;;29.50;1.00;;;;;;5089224;28;20426;-82
2021/06/21 09:15:33;;;;;;;6.93;5.80;;;29.60;1.00;;;;;;5091044;28;20434;-83
2021/06/21 09:18:00;;;;;;;7.80;5.83;;;29.60;1.00;;;;;;5092783;28;20425;-82
2021/06/21 09:20:28;;;;;;;6.50;4.73;;;29.50;1.00;;;;;;5089024;28;20491;-82
2021/06/21 09:23:01;;;;;;;7.40;3.80;;;29.60;1.00;;;;;;5089401;28;20498;-83
2021/06/21 09:25:28;;;;;;;7.57;3.70;;;29.80;1.00;;;;;;5080926;28;20410;-82
2021/06/21 09:27:56;;;;;;;4.10;3.60;;;29.60;1.00;;;;;;5082298;28;20455;-82
2021/06/21 09:30:25;;;;;;;3.80;3.03;;;29.30;1.00;;;;;;5083776;28;20503;-82
2021/06/21 09:32:53;;;;;;;5.27;3.70;;;29.20;1.00;;;;;;5089531;28;20574;-83
2021/06/21 09:35:39;;;;;;;4.73;3.30;;;29.20;1.00;;;;;;5084870;28;20424;-83
2021/06/21 09:38:11;;;;;;;8.33;3.77;;;29.50;1.00;;;;;;5085309;28;20451;-83
2021/06/21 09:40:40;;;;;;;5.03;3.37;;;29.90;1.00;;;;;;5082270;28;20463;-83
2021/06/21 09:43:22;;;;;;;4.57;3.17;;;30.40;1.00;;;;;;5084916;28;20412;-83
2021/06/21 09:46:05;;;;;;;4.27;3.70;;;31.10;1.00;;;;;;5084433;28;20534;-84
2021/06/21 09:48:32;;;;;;;4.20;3.23;;;32.40;1.00;;;;;;5089117;28;20413;-83
2021/06/21 09:51:16;;;;;;;3.50;2.80;;;33.30;1.00;;;;;;5086430;28;20522;-82
2021/06/21 09:53:52;;;;;;;5.90;2.80;;;34.00;1.00;;;;;;5095730;28;20560;-83
2021/06/21 09:56:31;;;;;;;4.40;2.50;;;34.10;1.00;;;;;;5092558;28;20458;-82
2021/06/21 09:58:58;;;;;;;4.20;2.40;;;34.40;1.00;;;;;;5065136;28;20417;-83
2021/06/21 10:01:31;;;;;;;2.40;2.13;;;34.20;1.00;;;;;;5090478;28;20403;-82
2021/06/21 10:03:58;;;;;;;3.30;2.80;;;34.30;1.00;;;;;;5098107;28;20398;-82
2021/06/21 10:06:36;;;;;;;4.00;2.93;;;34.20;1.00;;;;;;5088157;28;20488;-83
2021/06/21 10:09:04;;;;;;;3.80;3.03;;;35.10;1.00;;;;;;5081695;28;20431;-82
2021/06/21 10:11:33;;;;;;;4.70;3.20;;;35.60;1.00;;;;;;5088609;28;20482;-83
2021/06/21 10:14:02;;;;;;;5.87;3.70;;;35.80;1.00;;;;;;5083100;28;20442;-83
2021/06/21 10:16:30;;;;;;;4.30;3.40;;;35.60;1.00;;;;;;5083017;28;20415;-82
2021/06/21 10:18:57;;;;;;;4.50;3.10;;;35.70;1.00;;;;;;5086920;28;20440;-81
2021/06/21 10:21:25;;;;;;;5.77;3.37;;;36.10;1.00;;;;;;5080344;28;20419;-82
2021/06/21 10:23:52;;;;;;;5.67;3.40;;;36.50;1.00;;;;;;5080294;28;20548;-82
2021/06/21 10:26:19;;;;;;;5.13;3.60;;;36.90;1.00;;;;;;5080292;28;20454;-81
2021/06/21 10:28:46;;;;;;;5.67;3.03;;;37.60;1.00;;;;;;5081881;28;20457;-81
2021/06/21 10:31:13;;;;;;;3.57;2.70;;;38.30;1.00;;;;;;5082268;28;20555;-82
2021/06/21 10:33:41;;;;;;;3.83;3.37;;;38.30;1.00;;;;;;5067062;28;21163;-81
2021/06/21 10:36:09;;;;;;;6.40;3.80;;;37.80;1.00;;;;;;5089619;28;20427;-82
2021/06/21 10:38:35;;;;;;;4.40;3.50;;;37.90;1.00;;;;;;5082823;28;20419;-82
2021/06/21 10:41:05;;;;;;;6.17;4.03;;;37.70;1.00;;;;;;5081026;28;20472;-82
2021/06/21 10:43:51;;;;;;;4.70;3.87;;;36.90;1.00;;;;;;5088838;28;20450;-82
2021/06/21 10:46:23;;;;;;;4.20;3.80;;;37.10;1.00;;;;;;5073777;28;20447;-84
2021/06/21 10:49:33;;;;;;;6.23;3.70;;;37.80;1.00;;;;;;5074298;28;20415;-83
2021/06/21 10:52:01;;;;;;;6.40;4.10;;;37.80;1.00;;;;;;5078335;28;20481;-83
2021/06/21 10:54:28;;;;;;;5.60;3.93;;;37.80;1.00;;;;;;5071199;28;20542;-82
2021/06/21 10:56:56;;;;;;;5.63;3.90;;;37.90;1.00;;;;;;5073347;28;20446;-82
2021/06/21 10:59:24;;;;;;;5.70;4.67;;;38.40;1.00;;;;;;5073679;28;20989;-84
2021/06/21 11:01:52;;;;;;;4.40;3.57;;;39.20;1.00;;;;;;5071148;28;20502;-83
2021/06/21 11:04:48;;;;;;;4.23;3.40;;;39.80;1.00;;;;;;5073039;28;20447;-83
2021/06/21 11:07:17;;;;;;;3.83;3.43;;;39.70;1.00;;;;;;5078157;28;20503;-84
2021/06/21 11:09:45;;;;;;;6.70;3.90;;;39.80;1.00;;;;;;5074893;28;20488;-84
2021/06/21 11:12:35;;;;;;;6.10;3.90;;;40.00;1.00;;;;;;5056094;28;20560;-83
2021/06/21 11:15:11;;;;;;;7.07;3.77;;;40.00;1.00;;;;;;5073594;28;20524;-84
2021/06/21 11:17:58;;;;;;;5.73;4.20;;;40.40;1.00;;;;;;5055366;28;20422;-84
2021/06/21 11:20:31;;;;;;;7.57;3.60;;;40.90;1.00;;;;;;5056629;28;20431;-83
2021/06/21 11:23:02;;;;;;;4.37;4.00;;;41.30;1.00;;;;;;5070831;28;20587;-84
2021/06/21 11:25:30;;;;;;;4.43;4.03;;;41.50;1.00;;;;;;5078063;28;20482;-84
2021/06/21 11:27:58;;;;;;;4.83;3.60;;;41.80;1.00;;;;;;5079233;28;20459;-82
2021/06/21 11:30:35;;;;;;;4.27;3.77;;;41.90;1.00;;;;;;5095232;28;20446;-83
2021/06/21 11:33:05;;;;;;;4.13;3.30;;;42.20;1.00;;;;;;5062058;28;20587;-84
2021/06/21 11:36:05;;;;;;;7.20;4.70;;;42.70;1.00;;;;;;5079641;28;20501;-83
2021/06/21 11:38:35;;;;;;;4.00;3.60;;;43.20;1.00;;;;;;5080465;28;20534;-82
2021/06/21 11:41:26;;;;;;;5.83;3.70;;;42.00;1.00;;;;;;5069351;28;21292;-82
2021/06/21 11:43:55;;;;;;;6.17;4.30;;;41.70;1.00;;;;;;5078233;28;20881;-82
2021/06/21 11:46:45;;;;;;;5.27;3.63;;;41.10;1.00;;;;;;5072861;28;20467;-83
2021/06/21 11:49:13;;;;;;;5.93;3.30;;;41.30;1.00;;;;;;5074281;28;20584;-83
2021/06/21 11:51:55;;;;;;;3.63;2.90;;;41.70;1.00;;;;;;5072707;28;20483;-83
2021/06/21 11:54:22;;;;;;;6.17;3.27;;;42.20;1.00;;;;;;5055381;28;20442;-81
2021/06/21 11:56:51;;;;;;;4.30;2.77;;;41.90;1.00;;;;;;5072081;28;20422;-82
2021/06/21 11:59:29;;;;;;;5.97;3.50;;;41.80;1.00;;;;;;5074622;28;20519;-83
2021/06/21 12:02:00;;;;;;;6.00;3.10;;;41.90;1.00;;;;;;5066790;28;21376;-82
2021/06/21 12:04:27;;;;;;;4.53;3.60;;;42.10;1.00;;;;;;5065972;28;20998;-83
2021/06/21 12:06:56;;;;;;;4.17;2.70;;;42.50;1.00;;;;;;5055919;28;20459;-83
2021/06/21 12:09:22;;;;;;;5.60;3.10;;;42.90;1.00;;;;;;5080212;28;20446;-83
2021/06/21 12:11:52;;;;;;;6.90;3.10;;;43.10;1.00;;;;;;5075199;28;20573;-84
2021/06/21 12:14:21;;;;;;;4.50;3.30;;;43.10;1.00;;;;;;5074984;28;20560;-84
2021/06/21 12:16:48;;;;;;;3.97;3.57;;;43.20;1.00;;;;;;5080366;28;20459;-83
2021/06/21 12:19:14;;;;;;;5.13;3.43;;;43.50;1.00;;;;;;5075391;28;20558;-84
2021/06/21 12:21:43;;;;;;;7.00;3.40;;;43.80;1.00;;;;;;5076618;28;20565;-83
2021/06/21 12:24:20;;;;;;;6.60;3.97;;;43.80;1.00;;;;;;5077497;28;20470;-82
2021/06/21 12:26:48;;;;;;;5.03;2.90;;;43.60;1.00;;;;;;5072897;28;21445;-82
2021/06/21 12:29:29;;;;;;;5.07;3.50;;;43.60;1.00;;;;;;5073374;28;20971;-82
2021/06/21 12:31:59;;;;;;;5.87;3.10;;;43.80;1.00;;;;;;5078560;28;21412;-84
2021/06/21 12:34:45;;;;;;;5.43;2.90;;;43.20;1.00;;;;;;5075491;28;20439;-83
2021/06/21 12:37:18;;;;;;;5.40;2.77;;;42.70;1.00;;;;;;5069612;28;20490;-84
2021/06/21 12:39:48;;;;;;;5.70;3.00;;;43.10;1.00;;;;;;5071804;28;20457;-84
2021/06/21 12:42:19;;;;;;;4.17;3.30;;;43.80;1.00;;;;;;5052098;28;21859;-84
2021/06/21 12:44:48;;;;;;;3.83;2.80;;;43.90;1.00;;;;;;5057551;28;20525;-83
2021/06/21 12:47:21;;;;;;;5.60;3.33;;;43.10;1.00;;;;;;5071250;28;20471;-82
2021/06/21 12:49:49;;;;;;;3.57;2.90;;;43.00;1.00;;;;;;5081492;28;20528;-82
2021/06/21 12:52:19;;;;;;;7.50;3.33;;;43.30;1.00;;;;;;5076464;28;20537;-82
2021/06/21 12:54:48;;;;;;;3.93;3.17;;;43.40;1.00;;;;;;5077307;28;20438;-83
2021/06/21 12:57:14;;;;;;;6.50;2.97;;;43.20;1.00;;;;;;5078870;28;20455;-83